createdAt,value
2022-12-13T00:00:52.248Z,1006.67
2022-12-13T00:01:52.252Z,1006.63
2022-12-13T00:02:52.165Z,1006.62
2022-12-13T00:03:52.175Z,1006.62
2022-12-13T00:04:52.053Z,1006.63
2022-12-13T00:05:52.013Z,1006.65
2022-12-13T00:06:51.959Z,1006.65
2022-12-13T00:07:51.980Z,1006.67
2022-12-13T00:08:51.873Z,1006.94
2022-12-13T00:09:51.814Z,1006.61
2022-12-13T00:10:51.768Z,1006.61
2022-12-13T00:11:51.720Z,1006.57
2022-12-13T00:12:51.671Z,1006.55
2022-12-13T00:13:51.626Z,1006.58
2022-12-13T00:14:51.588Z,1006.56
2022-12-13T00:15:51.534Z,1006.55
2022-12-13T00:16:51.508Z,1006.53
2022-12-13T00:17:51.432Z,1006.50
2022-12-13T00:18:51.386Z,1006.51
2022-12-13T00:19:51.339Z,1006.52
2022-12-13T00:20:51.300Z,1006.50
2022-12-13T00:21:51.267Z,1006.50
2022-12-13T00:22:51.196Z,1006.50
2022-12-13T00:23:51.144Z,1006.54
2022-12-13T00:24:51.095Z,1006.56
2022-12-13T00:25:51.048Z,1006.50
2022-12-13T00:26:50.996Z,1006.56
2022-12-13T00:27:50.978Z,1006.75
2022-12-13T00:28:50.900Z,1006.87
2022-12-13T00:29:50.867Z,1006.61
2022-12-13T00:30:50.860Z,1006.84
2022-12-13T00:31:59.303Z,1006.88
2022-12-13T00:32:50.710Z,1006.79
2022-12-13T00:33:50.676Z,1006.90
2022-12-13T00:34:50.621Z,1006.87
2022-12-13T00:35:50.570Z,1006.53
2022-12-13T00:36:50.523Z,1006.72
2022-12-13T00:37:50.474Z,1006.82
2022-12-13T00:38:50.444Z,1006.49
2022-12-13T00:39:50.382Z,1006.48
2022-12-13T00:40:50.331Z,1006.59
2022-12-13T00:41:50.283Z,1006.70
2022-12-13T00:42:50.230Z,1006.49
2022-12-13T00:43:50.188Z,1006.48
2022-12-13T00:44:50.156Z,1006.48
2022-12-13T00:45:50.194Z,1006.81
2022-12-13T00:46:50.050Z,1006.83
2022-12-13T00:47:50.000Z,1006.82
2022-12-13T00:48:49.944Z,1006.72
2022-12-13T00:49:49.909Z,1006.48
2022-12-13T00:50:49.862Z,1006.57
2022-12-13T00:51:49.953Z,1006.79
2022-12-13T00:52:49.754Z,1006.61
2022-12-13T00:53:49.710Z,1006.52
2022-12-13T00:54:49.658Z,1006.78
2022-12-13T00:55:49.619Z,1006.77
2022-12-13T00:56:49.559Z,1006.76
2022-12-13T00:57:49.536Z,1006.41
2022-12-13T00:58:52.106Z,1006.45
2022-12-13T00:59:49.427Z,1006.43
2022-12-13T01:00:49.370Z,1006.41
2022-12-13T01:01:49.399Z,1006.45
2022-12-13T01:02:49.278Z,1006.38
2022-12-13T01:03:49.243Z,1006.37
2022-12-13T01:04:49.174Z,1006.41
2022-12-13T01:06:14.181Z,1006.38
2022-12-13T01:06:49.083Z,1006.34
2022-12-13T01:07:49.064Z,1006.40
2022-12-13T01:08:48.986Z,1006.42
2022-12-13T01:09:48.956Z,1006.38
2022-12-13T01:10:48.890Z,1006.38
2022-12-13T01:11:48.852Z,1006.48
2022-12-13T01:12:48.795Z,1006.37
2022-12-13T01:13:48.752Z,1006.39
2022-12-13T01:14:51.833Z,1006.36
2022-12-13T01:15:48.662Z,1006.39
2022-12-13T01:16:48.657Z,1006.37
2022-12-13T01:17:48.558Z,1006.71
2022-12-13T01:18:48.506Z,1006.73
2022-12-13T01:19:48.462Z,1006.72
2022-12-13T01:20:48.411Z,1006.37
2022-12-13T01:21:48.370Z,1006.73
2022-12-13T01:22:48.323Z,1006.46
2022-12-13T01:23:48.270Z,1006.47
2022-12-13T01:24:48.218Z,1006.78
2022-12-13T01:25:48.173Z,1006.43
2022-12-13T01:26:48.135Z,1006.76
2022-12-13T01:27:48.083Z,1006.80
2022-12-13T01:28:48.024Z,1006.80
2022-12-13T01:29:47.984Z,1006.45
2022-12-13T01:30:47.953Z,1006.47
2022-12-13T01:31:47.885Z,1006.81
2022-12-13T01:32:47.851Z,1006.80
2022-12-13T01:33:47.787Z,1006.82
2022-12-13T01:34:47.738Z,1006.77
2022-12-13T01:35:47.692Z,1006.48
2022-12-13T01:36:47.648Z,1006.48
2022-12-13T01:37:47.594Z,1006.83
2022-12-13T01:38:47.569Z,1006.86
2022-12-13T01:39:47.503Z,1006.63
2022-12-13T01:40:47.452Z,1006.83
2022-12-13T01:41:47.407Z,1006.50
2022-12-13T01:42:47.356Z,1006.69
2022-12-13T01:43:47.309Z,1006.56
2022-12-13T01:44:47.275Z,1006.85
2022-12-13T01:45:47.244Z,1006.55
2022-12-13T01:46:47.162Z,1006.55
2022-12-13T01:47:47.119Z,1006.51
2022-12-13T01:48:47.065Z,1006.87
2022-12-13T01:49:47.020Z,1006.58
2022-12-13T01:50:46.988Z,1006.90
2022-12-13T01:51:46.931Z,1006.90
2022-12-13T01:52:46.872Z,1006.91
2022-12-13T01:53:46.833Z,1006.88
2022-12-13T01:54:47.014Z,1006.83
2022-12-13T01:55:46.731Z,1006.88
2022-12-13T01:56:46.695Z,1006.83
2022-12-13T01:57:46.653Z,1006.84
2022-12-13T01:58:46.583Z,1006.87
2022-12-13T01:59:46.538Z,1006.87
2022-12-13T02:00:46.488Z,1006.89
2022-12-13T02:01:46.496Z,1006.89
2022-12-13T02:02:46.396Z,1006.58
2022-12-13T02:03:46.352Z,1006.94
2022-12-13T02:04:46.401Z,1006.93
2022-12-13T02:05:46.248Z,1006.93
2022-12-13T02:06:46.202Z,1006.93
2022-12-13T02:07:46.173Z,1006.60
2022-12-13T02:08:46.108Z,1006.88
2022-12-13T02:09:46.057Z,1006.88
2022-12-13T02:10:46.004Z,1006.55
2022-12-13T02:11:45.961Z,1006.86
2022-12-13T02:12:45.908Z,1006.87
2022-12-13T02:13:45.884Z,1006.90
2022-12-13T02:14:45.816Z,1006.89
2022-12-13T02:15:45.834Z,1006.91
2022-12-13T02:16:45.719Z,1006.92
2022-12-13T02:17:45.942Z,1006.89
2022-12-13T02:18:45.618Z,1006.90
2022-12-13T02:19:45.587Z,1006.92
2022-12-13T02:20:45.523Z,1006.92
2022-12-13T02:21:45.478Z,1006.59
2022-12-13T02:22:45.429Z,1006.59
2022-12-13T02:23:45.382Z,1006.94
2022-12-13T02:24:45.347Z,1006.57
2022-12-13T02:25:45.283Z,1006.62
2022-12-13T02:26:45.265Z,1006.63
2022-12-13T02:27:45.267Z,1006.93
2022-12-13T02:28:45.143Z,1006.93
2022-12-13T02:29:45.088Z,1006.90
2022-12-13T02:30:45.067Z,1006.88
2022-12-13T02:31:45.010Z,1006.88
2022-12-13T02:32:44.947Z,1006.84
2022-12-13T02:33:44.909Z,1006.85
2022-12-13T02:34:44.856Z,1006.90
2022-12-13T02:35:44.801Z,1006.83
2022-12-13T02:36:44.766Z,1006.81
2022-12-13T02:37:44.702Z,1006.82
2022-12-13T02:38:44.657Z,1006.81
2022-12-13T02:39:44.609Z,1006.61
2022-12-13T02:40:44.563Z,1006.66
2022-12-13T02:41:44.518Z,1006.83
2022-12-13T02:42:44.474Z,1006.84
2022-12-13T02:43:45.336Z,1006.83
2022-12-13T02:44:44.367Z,1006.85
2022-12-13T02:45:44.335Z,1006.81
2022-12-13T02:46:44.315Z,1006.83
2022-12-13T02:47:44.228Z,1006.48
2022-12-13T02:48:44.174Z,1006.80
2022-12-13T02:49:44.121Z,1006.46
2022-12-13T02:50:44.075Z,1006.44
2022-12-13T02:51:44.026Z,1006.71
2022-12-13T02:52:43.989Z,1006.76
2022-12-13T02:53:43.926Z,1006.42
2022-12-13T02:54:43.889Z,1006.42
2022-12-13T02:55:43.837Z,1006.75
2022-12-13T02:56:43.789Z,1006.74
2022-12-13T02:57:43.747Z,1006.72
2022-12-13T02:58:43.691Z,1006.53
2022-12-13T02:59:43.638Z,1006.36
2022-12-13T03:00:43.593Z,1006.35
2022-12-13T03:01:43.563Z,1006.32
2022-12-13T03:02:43.727Z,1006.63
2022-12-13T03:03:43.461Z,1006.28
2022-12-13T03:04:43.396Z,1006.28
2022-12-13T03:05:43.346Z,1006.27
2022-12-13T03:06:43.300Z,1006.64
2022-12-13T03:07:43.250Z,1006.63
2022-12-13T03:08:43.221Z,1006.64
2022-12-13T03:09:43.151Z,1006.63
2022-12-13T03:10:43.106Z,1006.66
2022-12-13T03:11:43.057Z,1006.33
2022-12-13T03:12:43.007Z,1006.34
2022-12-13T03:13:42.959Z,1006.34
2022-12-13T03:14:42.929Z,1006.29
2022-12-13T03:15:42.908Z,1006.33
2022-12-13T03:16:42.818Z,1006.34
2022-12-13T03:17:42.768Z,1006.33
2022-12-13T03:18:42.718Z,1006.33
2022-12-13T03:19:42.667Z,1006.32
2022-12-13T03:20:42.631Z,1006.31
2022-12-13T03:21:47.388Z,1006.34
2022-12-13T03:22:42.538Z,1006.29
2022-12-13T03:23:42.475Z,1006.34
2022-12-13T03:24:42.427Z,1006.30
2022-12-13T03:25:42.379Z,1006.31
2022-12-13T03:26:42.341Z,1006.27
2022-12-13T03:27:42.283Z,1006.25
2022-12-13T03:28:42.251Z,1006.31
2022-12-13T03:29:42.182Z,1006.61
2022-12-13T03:30:42.138Z,1006.60
2022-12-13T03:31:42.129Z,1006.26
2022-12-13T03:32:42.043Z,1006.25
2022-12-13T03:33:41.987Z,1006.31
2022-12-13T03:34:43.590Z,1006.65
2022-12-13T03:35:44.377Z,1006.66
2022-12-13T03:36:41.845Z,1006.66
2022-12-13T03:37:41.794Z,1006.65
2022-12-13T03:38:41.750Z,1006.61
2022-12-13T03:39:41.700Z,1006.30
2022-12-13T03:40:41.666Z,1006.63
2022-12-13T03:41:41.603Z,1006.58
2022-12-13T03:42:41.563Z,1006.59
2022-12-13T03:43:41.506Z,1006.58
2022-12-13T03:44:41.461Z,1006.59
2022-12-13T03:45:41.414Z,1006.58
2022-12-13T03:46:41.441Z,1006.63
2022-12-13T03:47:41.312Z,1006.25
2022-12-13T03:48:41.263Z,1006.25
2022-12-13T03:49:41.220Z,1006.27
2022-12-13T03:50:41.166Z,1006.59
2022-12-13T03:51:41.149Z,1006.61
2022-12-13T03:52:41.068Z,1006.59
2022-12-13T03:53:41.017Z,1006.58
2022-12-13T03:54:40.970Z,1006.60
2022-12-13T03:55:40.921Z,1006.25
2022-12-13T03:56:40.892Z,1006.55
2022-12-13T03:57:40.824Z,1006.55
2022-12-13T03:58:40.780Z,1006.59
2022-12-13T03:59:40.726Z,1006.52
2022-12-13T04:00:40.683Z,1006.51
2022-12-13T04:01:40.731Z,1006.50
2022-12-13T04:02:40.619Z,1006.49
2022-12-13T04:03:40.542Z,1006.50
2022-12-13T04:04:40.489Z,1006.48
2022-12-13T04:05:40.435Z,1006.47
2022-12-13T04:06:40.463Z,1006.18
2022-12-13T04:07:40.346Z,1006.50
2022-12-13T04:08:40.337Z,1006.49
2022-12-13T04:09:40.260Z,1006.46
2022-12-13T04:10:40.195Z,1006.50
2022-12-13T04:11:42.681Z,1006.49
2022-12-13T04:12:43.070Z,1006.44
2022-12-13T04:13:40.047Z,1006.48
2022-12-13T04:14:40.000Z,1006.11
2022-12-13T04:15:39.965Z,1006.14
2022-12-13T04:16:39.904Z,1006.12
2022-12-13T04:17:39.852Z,1006.15
2022-12-13T04:18:39.807Z,1006.14
2022-12-13T04:19:39.769Z,1006.17
2022-12-13T04:20:39.706Z,1006.14
2022-12-13T04:21:39.667Z,1006.13
2022-12-13T04:22:39.610Z,1006.12
2022-12-13T04:23:39.563Z,1006.11
2022-12-13T04:24:39.514Z,1006.14
2022-12-13T04:25:39.482Z,1006.09
2022-12-13T04:26:39.415Z,1006.11
2022-12-13T04:27:39.363Z,1006.12
2022-12-13T04:28:39.321Z,1006.46
2022-12-13T04:29:39.267Z,1006.08
2022-12-13T04:30:39.224Z,1006.05
2022-12-13T04:31:39.217Z,1006.04
2022-12-13T04:32:39.125Z,1006.05
2022-12-13T04:33:39.070Z,1006.00
2022-12-13T04:34:39.037Z,1005.96
2022-12-13T04:35:38.974Z,1006.36
2022-12-13T04:36:38.936Z,1006.01
2022-12-13T04:37:38.891Z,1006.01
2022-12-13T04:38:38.832Z,1005.96
2022-12-13T04:39:38.784Z,1005.96
2022-12-13T04:40:38.733Z,1005.97
2022-12-13T04:41:38.682Z,1005.96
2022-12-13T04:42:38.637Z,1005.98
2022-12-13T04:43:38.607Z,1005.93
2022-12-13T04:44:41.194Z,1005.92
2022-12-13T04:45:38.528Z,1005.94
2022-12-13T04:46:38.444Z,1005.93
2022-12-13T04:47:38.395Z,1005.92
2022-12-13T04:48:38.348Z,1005.91
2022-12-13T04:49:38.313Z,1005.99
2022-12-13T04:50:38.249Z,1005.86
2022-12-13T04:51:38.196Z,1005.86
2022-12-13T04:52:38.153Z,1005.88
2022-12-13T04:53:38.100Z,1005.84
2022-12-13T04:54:38.052Z,1005.85
2022-12-13T04:55:38.010Z,1005.84
2022-12-13T04:56:37.966Z,1005.88
2022-12-13T04:57:37.912Z,1005.93
2022-12-13T04:58:37.862Z,1005.89
2022-12-13T04:59:37.810Z,1005.90
2022-12-13T05:00:37.834Z,1005.94
2022-12-13T05:01:37.723Z,1005.89
2022-12-13T05:02:37.707Z,1006.27
2022-12-13T05:03:37.617Z,1005.93
2022-12-13T05:04:37.569Z,1006.27
2022-12-13T05:05:37.516Z,1005.91
2022-12-13T05:06:37.490Z,1005.92
2022-12-13T05:07:42.396Z,1005.96
2022-12-13T05:08:37.379Z,1005.93
2022-12-13T05:09:37.320Z,1005.92
2022-12-13T05:10:38.159Z,1006.02
2022-12-13T05:11:37.225Z,1005.98
2022-12-13T05:12:37.196Z,1006.28
2022-12-13T05:13:37.129Z,1006.29
2022-12-13T05:14:37.101Z,1006.24
2022-12-13T05:15:37.030Z,1006.27
2022-12-13T05:16:37.033Z,1006.27
2022-12-13T05:17:36.930Z,1006.23
2022-12-13T05:18:36.897Z,1006.29
2022-12-13T05:19:36.839Z,1005.94
2022-12-13T05:20:36.805Z,1005.94
2022-12-13T05:21:36.750Z,1005.97
2022-12-13T05:22:36.693Z,1005.97
2022-12-13T05:23:36.641Z,1005.93
2022-12-13T05:24:36.597Z,1005.90
2022-12-13T05:25:36.559Z,1005.85
2022-12-13T05:26:36.514Z,1006.23
2022-12-13T05:27:36.447Z,1005.90
2022-12-13T05:28:36.398Z,1005.88
2022-12-13T05:29:36.355Z,1005.89
2022-12-13T05:30:36.308Z,1005.95
2022-12-13T05:31:36.298Z,1005.80
2022-12-13T05:32:44.310Z,1005.80
2022-12-13T05:33:36.169Z,1005.79
2022-12-13T05:34:36.107Z,1005.77
2022-12-13T05:35:36.059Z,1006.14
2022-12-13T05:36:36.011Z,1005.85
2022-12-13T05:37:35.960Z,1005.76
2022-12-13T05:38:35.920Z,1005.72
2022-12-13T05:39:35.876Z,1005.75
2022-12-13T05:40:35.823Z,1005.73
2022-12-13T05:41:35.819Z,1005.74
2022-12-13T05:42:35.720Z,1005.79
2022-12-13T05:43:43.334Z,1005.72
2022-12-13T05:44:35.620Z,1005.69
2022-12-13T05:45:35.606Z,1005.68
2022-12-13T05:46:41.307Z,1005.70
2022-12-13T05:47:35.503Z,1005.69
2022-12-13T05:48:35.427Z,1005.73
2022-12-13T05:49:35.370Z,1005.75
2022-12-13T05:50:35.325Z,1006.10
2022-12-13T05:51:35.283Z,1005.79
2022-12-13T05:52:35.230Z,1005.76
2022-12-13T05:53:35.195Z,1005.76
2022-12-13T05:54:35.139Z,1005.79
2022-12-13T05:55:35.079Z,1005.78
2022-12-13T05:56:35.032Z,1005.94
2022-12-13T05:57:34.980Z,1005.78
2022-12-13T05:58:35.691Z,1005.81
2022-12-13T05:59:34.920Z,1005.82
2022-12-13T06:00:34.838Z,1005.78
2022-12-13T06:01:34.788Z,1005.78
2022-12-13T06:02:34.831Z,1005.81
2022-12-13T06:03:34.785Z,1005.83
2022-12-13T06:04:34.639Z,1005.83
2022-12-13T06:05:34.617Z,1005.86
2022-12-13T06:06:34.546Z,1005.84
2022-12-13T06:07:34.495Z,1005.84
2022-12-13T06:08:34.495Z,1005.82
2022-12-13T06:09:40.033Z,1005.84
2022-12-13T06:10:35.475Z,1005.86
2022-12-13T06:11:34.318Z,1005.80
2022-12-13T06:12:34.256Z,1005.91
2022-12-13T06:13:34.201Z,1005.85
2022-12-13T06:14:34.155Z,1005.86
2022-12-13T06:15:34.860Z,1005.84
2022-12-13T06:16:34.107Z,1005.85
2022-12-13T06:17:34.026Z,1005.88
2022-12-13T06:18:33.964Z,1005.85
2022-12-13T06:19:33.909Z,1005.84
2022-12-13T06:20:33.862Z,1005.82
2022-12-13T06:21:41.070Z,1005.87
2022-12-13T06:22:33.768Z,1005.85
2022-12-13T06:23:33.728Z,1005.86
2022-12-13T06:24:33.673Z,1005.87
2022-12-13T06:25:33.616Z,1005.92
2022-12-13T06:26:33.604Z,1005.89
2022-12-13T06:27:33.518Z,1005.91
2022-12-13T06:28:33.473Z,1005.85
2022-12-13T06:29:33.423Z,1005.90
2022-12-13T06:30:33.405Z,1005.88
2022-12-13T06:31:33.326Z,1006.22
2022-12-13T06:32:33.297Z,1005.85
2022-12-13T06:33:33.229Z,1005.84
2022-12-13T06:34:33.183Z,1005.82
2022-12-13T06:35:38.076Z,1005.81
2022-12-13T06:36:33.094Z,1005.77
2022-12-13T06:37:33.033Z,1005.84
2022-12-13T06:38:33.006Z,1005.78
2022-12-13T06:39:33.785Z,1005.82
2022-12-13T06:40:32.893Z,1005.83
2022-12-13T06:41:32.836Z,1005.83
2022-12-13T06:42:32.785Z,1005.87
2022-12-13T06:43:32.751Z,1005.87
2022-12-13T06:44:32.706Z,1005.89
2022-12-13T06:45:32.640Z,1005.85
2022-12-13T06:46:32.748Z,1005.88
2022-12-13T06:47:32.723Z,1005.87
2022-12-13T06:48:32.493Z,1005.89
2022-12-13T06:49:32.653Z,1005.90
2022-12-13T06:50:32.395Z,1005.90
2022-12-13T06:51:33.501Z,1005.90
2022-12-13T06:52:32.298Z,1006.18
2022-12-13T06:53:32.252Z,1006.09
2022-12-13T06:54:32.204Z,1006.20
2022-12-13T06:55:32.158Z,1006.24
2022-12-13T06:56:32.118Z,1006.22
2022-12-13T06:57:32.062Z,1006.20
2022-12-13T06:58:32.006Z,1006.20
2022-12-13T06:59:31.957Z,1006.12
2022-12-13T07:00:35.656Z,1006.20
2022-12-13T07:01:37.467Z,1006.23
2022-12-13T07:02:31.916Z,1006.06
2022-12-13T07:03:31.884Z,1005.89
2022-12-13T07:04:31.739Z,1005.92
2022-12-13T07:05:31.666Z,1005.89
2022-12-13T07:06:31.616Z,1005.89
2022-12-13T07:07:31.585Z,1005.88
2022-12-13T07:08:31.550Z,1005.85
2022-12-13T07:09:31.479Z,1005.89
2022-12-13T07:10:31.419Z,1005.82
2022-12-13T07:11:31.371Z,1005.85
2022-12-13T07:12:31.326Z,1005.89
2022-12-13T07:13:31.275Z,1005.82
2022-12-13T07:14:31.232Z,1006.23
2022-12-13T07:15:31.236Z,1006.23
2022-12-13T07:16:31.124Z,1005.90
2022-12-13T07:17:33.379Z,1005.86
2022-12-13T07:18:31.032Z,1005.87
2022-12-13T07:19:35.233Z,1005.85
2022-12-13T07:20:30.925Z,1005.88
2022-12-13T07:21:30.880Z,1005.87
2022-12-13T07:22:34.921Z,1006.22
2022-12-13T07:23:30.785Z,1005.81
2022-12-13T07:24:30.732Z,1006.17
2022-12-13T07:25:30.709Z,1005.83
2022-12-13T07:26:30.637Z,1005.83
2022-12-13T07:27:30.600Z,1005.87
2022-12-13T07:28:30.535Z,1005.85
2022-12-13T07:29:30.494Z,1005.81
2022-12-13T07:30:30.439Z,1005.84
2022-12-13T07:31:30.465Z,1005.82
2022-12-13T07:32:30.373Z,1005.92
2022-12-13T07:33:30.291Z,1005.94
2022-12-13T07:34:30.275Z,1005.93
2022-12-13T07:35:30.201Z,1005.95
2022-12-13T07:36:30.147Z,1005.92
2022-12-13T07:37:31.139Z,1005.91
2022-12-13T07:38:30.053Z,1005.93
2022-12-13T07:39:30.002Z,1005.99
2022-12-13T07:40:29.954Z,1005.98
2022-12-13T07:41:29.973Z,1006.01
2022-12-13T07:42:29.852Z,1006.03
2022-12-13T07:43:29.820Z,1006.06
2022-12-13T07:44:29.778Z,1006.07
2022-12-13T07:45:29.712Z,1006.06
2022-12-13T07:46:32.885Z,1006.05
2022-12-13T07:47:29.611Z,1006.08
2022-12-13T07:48:29.559Z,1006.08
2022-12-13T07:49:29.527Z,1006.03
2022-12-13T07:50:29.531Z,1006.07
2022-12-13T07:51:29.414Z,1006.07
2022-12-13T07:52:29.368Z,1006.06
2022-12-13T07:53:29.323Z,1006.05
2022-12-13T07:54:29.266Z,1006.39
2022-12-13T07:55:33.097Z,1006.08
2022-12-13T07:56:29.179Z,1006.01
2022-12-13T07:57:29.132Z,1006.02
2022-12-13T07:58:29.136Z,1006.01
2022-12-13T07:59:29.208Z,1006.04
2022-12-13T08:00:28.972Z,1006.04
2022-12-13T08:01:28.998Z,1006.03
2022-12-13T08:02:28.883Z,1005.99
2022-12-13T08:03:28.976Z,1005.97
2022-12-13T08:04:28.841Z,1005.99
2022-12-13T08:05:28.799Z,1006.00
2022-12-13T08:06:28.684Z,1005.99
2022-12-13T08:07:28.653Z,1006.35
2022-12-13T08:08:30.685Z,1006.07
2022-12-13T08:09:28.537Z,1006.39
2022-12-13T08:10:28.486Z,1006.11
2022-12-13T08:11:28.444Z,1006.47
2022-12-13T08:12:28.385Z,1006.11
2022-12-13T08:13:28.379Z,1006.10
2022-12-13T08:14:28.293Z,1006.08
2022-12-13T08:15:28.248Z,1006.10
2022-12-13T08:16:29.690Z,1006.11
2022-12-13T08:17:28.143Z,1006.12
2022-12-13T08:18:28.202Z,1006.08
2022-12-13T08:19:28.069Z,1006.43
2022-12-13T08:20:27.993Z,1006.07
2022-12-13T08:21:53.464Z,1006.17
2022-12-13T08:22:27.898Z,1006.08
2022-12-13T08:23:27.861Z,1006.13
2022-12-13T08:24:27.877Z,1006.21
2022-12-13T08:25:27.781Z,1006.22
2022-12-13T08:26:27.717Z,1006.32
2022-12-13T08:27:27.661Z,1006.33
2022-12-13T08:28:27.609Z,1006.30
2022-12-13T08:29:34.670Z,1006.33
2022-12-13T08:30:27.608Z,1006.42
2022-12-13T08:31:27.503Z,1006.38
2022-12-13T08:32:27.428Z,1006.76
2022-12-13T08:33:27.386Z,1006.80
2022-12-13T08:34:27.323Z,1006.80
2022-12-13T08:35:32.059Z,1006.77
2022-12-13T08:36:27.230Z,1006.70
2022-12-13T08:37:27.203Z,1006.46
2022-12-13T08:38:27.135Z,1006.55
2022-12-13T08:39:34.565Z,1006.77
2022-12-13T08:40:27.040Z,1006.80
2022-12-13T08:41:27.009Z,1006.73
2022-12-13T08:42:26.946Z,1006.75
2022-12-13T08:43:26.918Z,1006.76
2022-12-13T08:44:26.853Z,1006.77
2022-12-13T08:45:26.820Z,1006.75
2022-12-13T08:46:26.859Z,1006.78
2022-12-13T08:47:27.009Z,1006.38
2022-12-13T08:48:26.681Z,1006.38
2022-12-13T08:49:26.705Z,1006.78
2022-12-13T08:50:26.594Z,1006.76
2022-12-13T08:51:32.255Z,1006.79
2022-12-13T08:52:26.497Z,1006.34
2022-12-13T08:53:28.699Z,1006.43
2022-12-13T08:54:31.267Z,1006.38
2022-12-13T08:55:31.831Z,1006.42
2022-12-13T08:56:26.311Z,1006.32
2022-12-13T08:57:26.269Z,1006.29
2022-12-13T08:58:26.225Z,1006.33
2022-12-13T08:59:26.180Z,1006.34
2022-12-13T09:00:26.205Z,1006.42
2022-12-13T09:01:26.107Z,1006.41
2022-12-13T09:02:26.137Z,1006.43
2022-12-13T09:03:26.003Z,1006.46
2022-12-13T09:04:33.600Z,1006.49
2022-12-13T09:05:33.345Z,1006.53
2022-12-13T09:06:25.882Z,1006.54
2022-12-13T09:07:25.840Z,1006.52
2022-12-13T09:08:25.834Z,1006.72
2022-12-13T09:09:25.739Z,1006.54
2022-12-13T09:10:27.920Z,1006.59
2022-12-13T09:11:34.526Z,1006.58
2022-12-13T09:12:29.765Z,1006.59
2022-12-13T09:13:31.769Z,1006.56
2022-12-13T09:14:25.519Z,1006.58
2022-12-13T09:15:25.589Z,1006.56
2022-12-13T09:16:25.544Z,1006.91
2022-12-13T09:17:25.527Z,1006.86
2022-12-13T09:18:29.033Z,1006.48
2022-12-13T09:19:26.765Z,1006.54
2022-12-13T09:20:28.911Z,1006.48
2022-12-13T09:21:31.081Z,1006.69
2022-12-13T09:22:33.606Z,1006.46
2022-12-13T09:23:25.232Z,1006.80
2022-12-13T09:24:25.105Z,1006.83
2022-12-13T09:25:25.040Z,1006.51
2022-12-13T09:26:25.431Z,1006.51
2022-12-13T09:27:27.991Z,1006.83
2022-12-13T09:28:24.909Z,1006.47
2022-12-13T09:29:24.869Z,1006.45
2022-12-13T09:30:24.823Z,1006.47
2022-12-13T09:31:24.848Z,1006.51
2022-12-13T09:32:24.751Z,1006.51
2022-12-13T09:33:30.158Z,1006.51
2022-12-13T09:34:24.691Z,1006.92
2022-12-13T09:35:24.606Z,1006.54
2022-12-13T09:36:24.561Z,1006.54
2022-12-13T09:37:24.517Z,1006.67
2022-12-13T09:38:24.491Z,1006.51
2022-12-13T09:39:24.432Z,1006.54
2022-12-13T09:40:25.358Z,1006.57
2022-12-13T09:41:28.592Z,1006.51
2022-12-13T09:42:24.298Z,1006.86
2022-12-13T09:43:32.020Z,1006.47
2022-12-13T09:44:32.814Z,1006.48
2022-12-13T09:45:31.704Z,1006.44
2022-12-13T09:46:25.087Z,1006.68
2022-12-13T09:47:24.457Z,1006.41
2022-12-13T09:48:24.323Z,1006.44
2022-12-13T09:49:24.052Z,1006.47
2022-12-13T09:50:27.867Z,1006.64
2022-12-13T09:51:29.844Z,1006.46
2022-12-13T09:52:23.887Z,1006.65
2022-12-13T09:53:23.819Z,1006.44
2022-12-13T09:54:23.776Z,1006.40
2022-12-13T09:55:23.732Z,1006.69
2022-12-13T09:56:23.714Z,1006.75
2022-12-13T09:57:32.120Z,1006.73
2022-12-13T09:58:24.020Z,1006.46
2022-12-13T09:59:23.557Z,1006.44
2022-12-13T10:00:23.509Z,1006.52
2022-12-13T10:01:23.840Z,1006.35
2022-12-13T10:02:23.514Z,1006.47
2022-12-13T10:03:23.700Z,1006.42
2022-12-13T10:04:23.334Z,1006.72
2022-12-13T10:05:33.836Z,1006.36
2022-12-13T10:06:23.790Z,1006.33
2022-12-13T10:07:23.200Z,1006.36
2022-12-13T10:08:23.153Z,1006.37
2022-12-13T10:09:23.110Z,1006.40
2022-12-13T10:10:23.104Z,1006.37
2022-12-13T10:11:23.021Z,1006.39
2022-12-13T10:12:22.992Z,1006.30
2022-12-13T10:13:23.431Z,1006.31
2022-12-13T10:14:22.885Z,1006.36
2022-12-13T10:15:22.927Z,1006.28
2022-12-13T10:16:23.833Z,1006.27
2022-12-13T10:17:22.755Z,1006.22
2022-12-13T10:18:22.701Z,1006.36
2022-12-13T10:19:29.124Z,1006.57
2022-12-13T10:20:22.612Z,1006.53
2022-12-13T10:21:22.572Z,1006.52
2022-12-13T10:22:22.533Z,1006.15
2022-12-13T10:23:38.483Z,1006.13
2022-12-13T10:24:28.679Z,1006.11
2022-12-13T10:25:22.393Z,1006.14
2022-12-13T10:26:24.467Z,1006.15
2022-12-13T10:27:22.318Z,1006.17
2022-12-13T10:28:22.254Z,1006.12
2022-12-13T10:29:22.213Z,1006.45
2022-12-13T10:30:28.007Z,1006.13
2022-12-13T10:31:22.189Z,1006.12
2022-12-13T10:32:22.075Z,1006.36
2022-12-13T10:33:24.047Z,1006.07
2022-12-13T10:34:22.009Z,1006.44
2022-12-13T10:35:21.953Z,1006.07
2022-12-13T10:36:26.409Z,1006.07
2022-12-13T10:37:21.854Z,1006.39
2022-12-13T10:38:21.808Z,1006.45
2022-12-13T10:39:21.771Z,1006.44
2022-12-13T10:40:32.019Z,1006.36
2022-12-13T10:41:21.676Z,1006.39
2022-12-13T10:42:23.679Z,1006.39
2022-12-13T10:43:22.071Z,1006.32
2022-12-13T10:44:21.555Z,1006.26
2022-12-13T10:45:23.401Z,1005.92
2022-12-13T10:46:25.073Z,1006.29
2022-12-13T10:47:21.415Z,1006.26
2022-12-13T10:48:21.391Z,1005.89
2022-12-13T10:49:21.348Z,1005.86
2022-12-13T10:50:21.283Z,1005.85
2022-12-13T10:51:21.245Z,1005.80
2022-12-13T10:52:30.875Z,1006.08
2022-12-13T10:53:22.903Z,1005.72
2022-12-13T10:54:21.115Z,1005.76
2022-12-13T10:55:23.158Z,1005.80
2022-12-13T10:56:23.132Z,1005.78
2022-12-13T10:57:20.991Z,1005.65
2022-12-13T10:58:20.956Z,1005.66
2022-12-13T10:59:20.905Z,1005.67
2022-12-13T11:00:20.884Z,1005.59
2022-12-13T11:01:20.863Z,1005.80
2022-12-13T11:02:20.830Z,1005.59
2022-12-13T11:03:20.754Z,1005.94
2022-12-13T11:04:26.904Z,1005.65
2022-12-13T11:05:23.240Z,1005.58
2022-12-13T11:06:20.614Z,1005.53
2022-12-13T11:07:20.574Z,1005.49
2022-12-13T11:08:20.518Z,1005.85
2022-12-13T11:09:23.141Z,1005.50
2022-12-13T11:10:26.688Z,1005.51
2022-12-13T11:11:20.385Z,1005.90
2022-12-13T11:12:20.348Z,1005.50
2022-12-13T11:13:20.318Z,1005.49
2022-12-13T11:14:20.267Z,1005.79
2022-12-13T11:15:23.005Z,1005.68
2022-12-13T11:16:20.223Z,1005.50
2022-12-13T11:17:21.092Z,1005.70
2022-12-13T11:18:20.090Z,1005.87
2022-12-13T11:19:20.126Z,1005.82
2022-12-13T11:20:20.016Z,1005.48
2022-12-13T11:21:19.959Z,1005.83
2022-12-13T11:22:19.925Z,1005.46
2022-12-13T11:23:19.881Z,1005.76
2022-12-13T11:24:23.089Z,1005.73
2022-12-13T11:25:19.790Z,1005.72
2022-12-13T11:26:24.337Z,1005.71
2022-12-13T11:27:19.704Z,1005.73
2022-12-13T11:28:37.336Z,1005.34
2022-12-13T11:29:19.624Z,1005.42
2022-12-13T11:30:19.600Z,1005.25
2022-12-13T11:31:19.592Z,1005.25
2022-12-13T11:32:22.823Z,1005.60
2022-12-13T11:33:19.445Z,1005.66
2022-12-13T11:34:19.409Z,1005.43
2022-12-13T11:35:19.360Z,1005.31
2022-12-13T11:36:19.333Z,1005.34
2022-12-13T11:37:19.290Z,1005.33
2022-12-13T11:38:19.242Z,1005.23
2022-12-13T11:39:19.189Z,1005.21
2022-12-13T11:40:19.150Z,1005.20
2022-12-13T11:41:32.435Z,1005.19
2022-12-13T11:42:19.088Z,1005.16
2022-12-13T11:43:19.016Z,1005.15
2022-12-13T11:44:18.974Z,1005.45
2022-12-13T11:45:22.462Z,1005.45
2022-12-13T11:46:18.944Z,1005.41
2022-12-13T11:47:18.865Z,1005.45
2022-12-13T11:48:18.805Z,1005.12
2022-12-13T11:49:18.759Z,1005.06
2022-12-13T11:50:33.108Z,1005.05
2022-12-13T11:51:18.672Z,1005.30
2022-12-13T11:52:18.631Z,1005.33
2022-12-13T11:53:18.596Z,1005.34
2022-12-13T11:54:24.123Z,1005.04
2022-12-13T11:55:18.501Z,1005.34
2022-12-13T11:56:18.460Z,1005.00
2022-12-13T11:57:18.412Z,1004.98
2022-12-13T11:58:32.546Z,1005.37
2022-12-13T11:59:24.299Z,1005.09
2022-12-13T12:00:33.547Z,1005.09
2022-12-13T12:01:18.236Z,1005.41
2022-12-13T12:02:18.249Z,1005.41
2022-12-13T12:03:18.212Z,1005.22
2022-12-13T12:04:18.151Z,1005.37
2022-12-13T12:05:18.061Z,1005.07